Cote D IVoirian Star — A8SL4 — position and weather

sailwx.info

Track history (hours):
 
Tides and Currents Weather Stations Pressure Air Temp Water Temp Dewpoint Dewpoint Depression Visibility Wind Speed Wind Dir Waves Ship Positions

Cote D IVoirian Star

Last reported at 2017-Dec-15 18:31 UTC. Time now 2017-Dec-17 00:49 UTC.
Position N 08°02' W 014°38'.

Length 185 m; draft 8.9 m.

Type: Cargo ship. MMSI: 636014241.

Date/timePositionNaut miles runAvg speedWind from/ knotsBaromVisibWave heightAir tempDewpointWater temp
2017-Dec-15 18:31N 08°02' W 014°38'016.3
2017-Dec-15 18:30N 08°02' W 014°38'816.3
2017-Dec-15 18:00N 08°07' W 014°45'816.3
2017-Dec-15 17:30N 08°12' W 014°51'816.5
2017-Dec-15 17:00N 08°18' W 014°57'916.7
2017-Dec-15 16:29N 08°23' W 015°04'8116.7
2017-Dec-15 11:37N 09°15' W 016°07'216.8
2017-Dec-15 11:30N 09°17' W 016°08'816.8
2017-Dec-15 11:00N 09°22' W 016°15'816.9
2017-Dec-15 10:30N 09°27' W 016°21'  
2017-Dec-12 13:22N 28°04' W 016°17'617.6
2017-Dec-12 13:00N 28°09' W 016°13'917.4
2017-Dec-12 12:30N 28°16' W 016°07'817.2
2017-Dec-12 12:00N 28°22' W 016°01'816.8
2017-Dec-12 11:30N 28°29' W 015°54'816.5
2017-Dec-12 11:00N 28°35' W 015°48'815.8
2017-Dec-12 10:30N 28°42' W 015°44'  
2017-Dec-09 00:24N 49°51' W 003°57'717.6
2017-Dec-09 00:00N 49°55' W 003°48'917.2
2017-Dec-08 23:30N 50°01' W 003°38'816.8
2017-Dec-08 23:00N 50°07' W 003°28'816.3
2017-Dec-08 22:31N 50°14' W 003°25'917.3
2017-Dec-08 22:01N 50°23' W 003°26'3 6.9
2017-Dec-08 21:30N 50°26' W 003°23'714.3
2017-Dec-08 21:01N 50°26' W 003°12'917.7
2017-Dec-08 20:30N 50°26' W 002°58'917.8
2017-Dec-08 20:00N 50°26' W 002°44'918.4
2017-Dec-08 19:30N 50°25' W 002°29'1019.0
2017-Dec-08 19:00N 50°25' W 002°14'1019.5
2017-Dec-08 18:30N 50°25' W 001°59'1020.2
2017-Dec-08 18:00N 50°25' W 001°43'2020.4
2017-Dec-08 17:03N 50°25' W 001°13'720.4
2017-Dec-08 16:42N 50°25' W 001°02'3419.0
2017-Dec-08 14:57N 50°31' W 000°10'817.9
2017-Dec-08 14:30N 50°33' E 000°03'917.7
2017-Dec-08 14:00N 50°35' E 000°16'816.8
2017-Dec-08 13:30N 50°37' E 000°28'816.4
2017-Dec-08 13:01N 50°41' E 000°40'816.9
2017-Dec-08 12:30N 50°46' E 000°51'917.5
2017-Dec-08 12:00N 50°51' E 001°02'918.6
2017-Dec-08 11:30N 50°57' E 001°13'1020.0
2017-Dec-08 11:00N 51°03' E 001°27'1121.3
2017-Dec-08 10:30N 51°10' E 001°39'1020.1
2017-Dec-08 10:01N 51°18' E 001°50'1019.0
2017-Dec-08 09:31N 51°24' E 002°00'917.1
2017-Dec-08 09:01N 51°21' E 002°13'815.9
2017-Dec-08 08:30N 51°22' E 002°26'1016.7
2017-Dec-08 07:55N 51°23' E 002°41'716.7
2017-Dec-08 07:29N 51°22' E 002°53'613.6
2017-Dec-08 07:01N 51°25' E 003°02'816.5
2017-Dec-08 06:30N 51°25' E 003°16'816.5
2017-Dec-08 06:00N 51°25' E 003°29'4 8.7
2017-Dec-08 05:30N 51°26' E 003°36'5 9.3
2017-Dec-08 05:00N 51°25' E 003°43'612.3
2017-Dec-08 04:30N 51°21' E 003°51'611.3
2017-Dec-08 04:00N 51°24' E 003°57'3 6.3
2017-Dec-08 03:30N 51°23' E 004°02'510.5
2017-Dec-08 03:01N 51°24' E 004°11'5 9.5
2017-Dec-08 02:30N 51°20' E 004°16'4 7.8
2017-Dec-08 02:01N 51°17' E 004°19'2 4.2
2017-Dec-08 01:30N 51°16' E 004°17'0 0.0
2017-Dec-08 01:01N 51°16' E 004°17'1 2.5
2017-Dec-08 00:31N 51°16' E 004°15'0 0.0
2017-Dec-07 23:59N 51°16' E 004°15'0 0.0
2017-Dec-07 23:29N 51°16' E 004°15'0 0.0
2017-Dec-07 22:59N 51°16' E 004°15'0 0.0
2017-Dec-07 22:26N 51°16' E 004°15'0 0.0
2017-Dec-07 21:59N 51°16' E 004°15'0 0.0
2017-Dec-07 21:29N 51°16' E 004°15'0 0.0
2017-Dec-07 20:59N 51°16' E 004°15'0 0.0
2017-Dec-07 20:29N 51°16' E 004°15'0 0.0
2017-Dec-07 19:59N 51°16' E 004°15'0 0.0
2017-Dec-07 19:29N 51°16' E 004°15'0 0.0
2017-Dec-07 18:59N 51°16' E 004°15'0 0.0
2017-Dec-07 18:29N 51°16' E 004°15'0 0.0
2017-Dec-07 17:59N 51°16' E 004°15'0 0.0
2017-Dec-07 17:29N 51°16' E 004°15'0 0.0
2017-Dec-07 16:59N 51°16' E 004°15'0 0.0
2017-Dec-07 16:29N 51°16' E 004°15'0 0.0
2017-Dec-07 15:59N 51°16' E 004°15'0 0.0
2017-Dec-07 15:23N 51°16' E 004°15'0 0.0
2017-Dec-07 14:59N 51°16' E 004°15'0 0.0
2017-Dec-07 14:23N 51°16' E 004°15'0 0.0
2017-Dec-07 14:00N 51°16' E 004°15'0 0.0
2017-Dec-07 13:29N 51°16' E 004°15'0 0.0
2017-Dec-07 12:59N 51°16' E 004°15'0 0.0
2017-Dec-07 12:29N 51°16' E 004°15'0 0.0
2017-Dec-07 11:59N 51°16' E 004°15'0 0.0
2017-Dec-07 11:29N 51°16' E 004°15'0 0.0
2017-Dec-07 10:59N 51°16' E 004°15'0 0.0
2017-Dec-07 10:29N 51°16' E 004°15'0 0.0
2017-Dec-07 09:56N 51°16' E 004°15'0 0.0
2017-Dec-07 09:29N 51°16' E 004°15'0 0.0
2017-Dec-07 08:59N 51°16' E 004°15'0 0.0
2017-Dec-07 08:23N 51°16' E 004°15'0 0.0
2017-Dec-07 07:53N 51°16' E 004°15'0 0.0
2017-Dec-07 07:26N 51°16' E 004°15'0 0.0
2017-Dec-07 06:59N 51°16' E 004°15'0 0.0
2017-Dec-07 06:29N 51°16' E 004°15'0 0.0
2017-Dec-07 05:59N 51°16' E 004°15'0 0.0
2017-Dec-07 05:26N 51°16' E 004°15'0 0.0
2017-Dec-07 04:59N 51°16' E 004°15'0 0.0
2017-Dec-07 04:29N 51°16' E 004°15'0 0.0
2017-Dec-07 03:59N 51°16' E 004°15'0 0.0
2017-Dec-07 03:29N 51°16' E 004°15'0 0.0
2017-Dec-07 02:56N 51°16' E 004°15'0 0.0
2017-Dec-07 02:29N 51°16' E 004°15'0 0.0
2017-Dec-07 01:59N 51°16' E 004°15'0 0.0
2017-Dec-07 01:29N 51°16' E 004°15'0 0.0
2017-Dec-07 00:59N 51°16' E 004°15'0 0.0
2017-Dec-07 00:29N 51°16' E 004°15'0 0.0
2017-Dec-06 23:56N 51°16' E 004°15'0 0.0
2017-Dec-06 23:29N 51°16' E 004°15'0 0.0
2017-Dec-06 23:00N 51°16' E 004°15'0 0.0
2017-Dec-06 22:23N 51°16' E 004°15'0 0.0
2017-Dec-06 21:59N 51°16' E 004°15'0 0.0
2017-Dec-06 21:14N 51°16' E 004°15'0 0.0
2017-Dec-06 20:59N 51°16' E 004°15'  
Track history (hours):
 
Tides and Currents Weather Stations Pressure Air Temp Water Temp Dewpoint Dewpoint Depression Visibility Wind Speed Wind Dir Waves Ship Positions

Cote D IVoirian Star

Last reported at 2017-Dec-15 18:31 UTC. Time now 2017-Dec-17 00:49 UTC.
Position N 08°02' W 014°38'.

Length 185 m; draft 8.9 m.

Type: Cargo ship. MMSI: 636014241.

Date/timePositionNaut miles runAvg speedWind from/ knotsBaromVisibWave heightAir tempDewpointWater temp
2017-Dec-15 18:31N 08°02' W 014°38'016.3
2017-Dec-15 18:30N 08°02' W 014°38'816.3
2017-Dec-15 18:00N 08°07' W 014°45'816.3
2017-Dec-15 17:30N 08°12' W 014°51'816.5
2017-Dec-15 17:00N 08°18' W 014°57'916.7
2017-Dec-15 16:29N 08°23' W 015°04'8116.7
2017-Dec-15 11:37N 09°15' W 016°07'216.8
2017-Dec-15 11:30N 09°17' W 016°08'816.8
2017-Dec-15 11:00N 09°22' W 016°15'816.9
2017-Dec-15 10:30N 09°27' W 016°21'  
2017-Dec-12 13:22N 28°04' W 016°17'617.6
2017-Dec-12 13:00N 28°09' W 016°13'917.4
2017-Dec-12 12:30N 28°16' W 016°07'817.2
2017-Dec-12 12:00N 28°22' W 016°01'816.8
2017-Dec-12 11:30N 28°29' W 015°54'816.5
2017-Dec-12 11:00N 28°35' W 015°48'815.8
2017-Dec-12 10:30N 28°42' W 015°44'  
2017-Dec-09 00:24N 49°51' W 003°57'717.6
2017-Dec-09 00:00N 49°55' W 003°48'917.2
2017-Dec-08 23:30N 50°01' W 003°38'816.8
2017-Dec-08 23:00N 50°07' W 003°28'816.3
2017-Dec-08 22:31N 50°14' W 003°25'917.3
2017-Dec-08 22:01N 50°23' W 003°26'3 6.9
2017-Dec-08 21:30N 50°26' W 003°23'714.3
2017-Dec-08 21:01N 50°26' W 003°12'917.7
2017-Dec-08 20:30N 50°26' W 002°58'917.8
2017-Dec-08 20:00N 50°26' W 002°44'918.4
2017-Dec-08 19:30N 50°25' W 002°29'1019.0
2017-Dec-08 19:00N 50°25' W 002°14'1019.5
2017-Dec-08 18:30N 50°25' W 001°59'1020.2
2017-Dec-08 18:00N 50°25' W 001°43'2020.4
2017-Dec-08 17:03N 50°25' W 001°13'720.4
2017-Dec-08 16:42N 50°25' W 001°02'3419.0
2017-Dec-08 14:57N 50°31' W 000°10'817.9
2017-Dec-08 14:30N 50°33' E 000°03'917.7
2017-Dec-08 14:00N 50°35' E 000°16'816.8
2017-Dec-08 13:30N 50°37' E 000°28'816.4
2017-Dec-08 13:01N 50°41' E 000°40'816.9
2017-Dec-08 12:30N 50°46' E 000°51'917.5
2017-Dec-08 12:00N 50°51' E 001°02'918.6
2017-Dec-08 11:30N 50°57' E 001°13'1020.0
2017-Dec-08 11:00N 51°03' E 001°27'1121.3
2017-Dec-08 10:30N 51°10' E 001°39'1020.1
2017-Dec-08 10:01N 51°18' E 001°50'1019.0
2017-Dec-08 09:31N 51°24' E 002°00'917.1
2017-Dec-08 09:01N 51°21' E 002°13'815.9
2017-Dec-08 08:30N 51°22' E 002°26'1016.7
2017-Dec-08 07:55N 51°23' E 002°41'716.7
2017-Dec-08 07:29N 51°22' E 002°53'613.6
2017-Dec-08 07:01N 51°25' E 003°02'816.5
2017-Dec-08 06:30N 51°25' E 003°16'816.5
2017-Dec-08 06:00N 51°25' E 003°29'4 8.7
2017-Dec-08 05:30N 51°26' E 003°36'5 9.3
2017-Dec-08 05:00N 51°25' E 003°43'612.3
2017-Dec-08 04:30N 51°21' E 003°51'611.3
2017-Dec-08 04:00N 51°24' E 003°57'3 6.3
2017-Dec-08 03:30N 51°23' E 004°02'510.5
2017-Dec-08 03:01N 51°24' E 004°11'5 9.5
2017-Dec-08 02:30N 51°20' E 004°16'4 7.8
2017-Dec-08 02:01N 51°17' E 004°19'2 4.2
2017-Dec-08 01:30N 51°16' E 004°17'0 0.0
2017-Dec-08 01:01N 51°16' E 004°17'1 2.5
2017-Dec-08 00:31N 51°16' E 004°15'0 0.0
2017-Dec-07 23:59N 51°16' E 004°15'0 0.0
2017-Dec-07 23:29N 51°16' E 004°15'0 0.0
2017-Dec-07 22:59N 51°16' E 004°15'0 0.0
2017-Dec-07 22:26N 51°16' E 004°15'0 0.0
2017-Dec-07 21:59N 51°16' E 004°15'0 0.0
2017-Dec-07 21:29N 51°16' E 004°15'0 0.0
2017-Dec-07 20:59N 51°16' E 004°15'0 0.0
2017-Dec-07 20:29N 51°16' E 004°15'0 0.0
2017-Dec-07 19:59N 51°16' E 004°15'0 0.0
2017-Dec-07 19:29N 51°16' E 004°15'0 0.0
2017-Dec-07 18:59N 51°16' E 004°15'0 0.0
2017-Dec-07 18:29N 51°16' E 004°15'0 0.0
2017-Dec-07 17:59N 51°16' E 004°15'0 0.0
2017-Dec-07 17:29N 51°16' E 004°15'0 0.0
2017-Dec-07 16:59N 51°16' E 004°15'0 0.0
2017-Dec-07 16:29N 51°16' E 004°15'0 0.0
2017-Dec-07 15:59N 51°16' E 004°15'0 0.0
2017-Dec-07 15:23N 51°16' E 004°15'0 0.0
2017-Dec-07 14:59N 51°16' E 004°15'0 0.0
2017-Dec-07 14:23N 51°16' E 004°15'0 0.0
2017-Dec-07 14:00N 51°16' E 004°15'0 0.0
2017-Dec-07 13:29N 51°16' E 004°15'0 0.0
2017-Dec-07 12:59N 51°16' E 004°15'0 0.0
2017-Dec-07 12:29N 51°16' E 004°15'0 0.0
2017-Dec-07 11:59N 51°16' E 004°15'0 0.0
2017-Dec-07 11:29N 51°16' E 004°15'0 0.0
2017-Dec-07 10:59N 51°16' E 004°15'0 0.0
2017-Dec-07 10:29N 51°16' E 004°15'0 0.0
2017-Dec-07 09:56N 51°16' E 004°15'0 0.0
2017-Dec-07 09:29N 51°16' E 004°15'0 0.0
2017-Dec-07 08:59N 51°16' E 004°15'0 0.0
2017-Dec-07 08:23N 51°16' E 004°15'0 0.0
2017-Dec-07 07:53N 51°16' E 004°15'0 0.0
2017-Dec-07 07:26N 51°16' E 004°15'0 0.0
2017-Dec-07 06:59N 51°16' E 004°15'0 0.0
2017-Dec-07 06:29N 51°16' E 004°15'0 0.0
2017-Dec-07 05:59N 51°16' E 004°15'0 0.0
2017-Dec-07 05:26N 51°16' E 004°15'0 0.0
2017-Dec-07 04:59N 51°16' E 004°15'0 0.0
2017-Dec-07 04:29N 51°16' E 004°15'0 0.0
2017-Dec-07 03:59N 51°16' E 004°15'0 0.0
2017-Dec-07 03:29N 51°16' E 004°15'0 0.0
2017-Dec-07 02:56N 51°16' E 004°15'0 0.0
2017-Dec-07 02:29N 51°16' E 004°15'0 0.0
2017-Dec-07 01:59N 51°16' E 004°15'0 0.0
2017-Dec-07 01:29N 51°16' E 004°15'0 0.0
2017-Dec-07 00:59N 51°16' E 004°15'0 0.0
2017-Dec-07 00:29N 51°16' E 004°15'0 0.0
2017-Dec-06 23:56N 51°16' E 004°15'0 0.0
2017-Dec-06 23:29N 51°16' E 004°15'0 0.0
2017-Dec-06 23:00N 51°16' E 004°15'0 0.0
2017-Dec-06 22:23N 51°16' E 004°15'0 0.0
2017-Dec-06 21:59N 51°16' E 004°15'0 0.0
2017-Dec-06 21:14N 51°16' E 004°15'0 0.0
2017-Dec-06 20:59N 51°16' E 004°15'  

Dump ship's entire track history